Time;durP1;ratioP1;P1;durP2;ratioP2;P2;SDS_P1;SDS_P2;PMS_P1;PMS_P2;Temp;Humidity;BMP_temperature;BMP_pressure;BME280_temperature;BME280_humidity;BME280_pressure;Samples;Min_cycle;Max_cycle;Signal;HPM_P1;HPM_P2
2023/10/02 00:00:40;;;;;;;47.65;8.95;;;;;;;;;;5062378;28;20037;-44
2023/10/02 00:03:09;;;;;;;62.85;12.40;;;;;;;;;;5071986;28;20028;-44
2023/10/02 00:05:40;;;;;;;56.00;13.88;;;;;;;;;;5067608;28;20037;-44
2023/10/02 00:08:25;;;;;;;75.77;16.00;;;;;;;;;;5065422;28;20367;-44
2023/10/02 00:10:52;;;;;;;61.83;11.20;;;;;;;;;;5066416;28;20040;-46
2023/10/02 00:13:20;;;;;;;57.00;10.43;;;;;;;;;;5072069;28;20031;-44
2023/10/02 00:15:47;;;;;;;54.05;11.52;;;;;;;;;;5069102;28;20037;-44
2023/10/02 00:18:18;;;;;;;52.35;10.95;;;;;;;;;;5069806;28;20504;-44
2023/10/02 00:20:45;;;;;;;56.03;12.32;;;;;;;;;;5070353;28;20044;-44
2023/10/02 00:23:12;;;;;;;54.92;14.23;;;;;;;;;;5059097;28;20065;-44
2023/10/02 00:25:51;;;;;;;56.50;13.52;;;;;;;;;;5067105;28;20039;-45
2023/10/02 00:28:30;;;;;;;58.45;15.50;;;;;;;;;;5052535;28;20033;-44
2023/10/02 00:30:57;;;;;;;70.40;16.95;;;;;;;;;;5066310;28;20040;-44
2023/10/02 00:33:29;;;;;;;65.72;15.75;;;;;;;;;;5062066;28;20482;-44
2023/10/02 00:35:58;;;;;;;58.72;15.82;;;;;;;;;;5058670;28;20044;-44
2023/10/02 00:38:25;;;;;;;68.60;16.15;;;;;;;;;;5060646;28;20053;-44
2023/10/02 00:40:52;;;;;;;74.57;18.30;;;;;;;;;;5062907;28;20195;-38
2023/10/02 00:43:34;;;;;;;62.95;17.35;;;;;;;;;;5064994;28;20021;-41
2023/10/02 00:46:02;;;;;;;70.47;17.65;;;;;;;;;;5068042;28;20596;-39
2023/10/02 00:48:29;;;;;;;55.13;15.75;;;;;;;;;;5071236;28;20028;-40
2023/10/02 00:51:05;;;;;;;48.58;15.60;;;;;;;;;;5067817;28;20037;-39
2023/10/02 00:53:41;;;;;;;60.15;15.55;;;;;;;;;;5061426;28;20506;-41
2023/10/02 00:56:24;;;;;;;53.03;15.25;;;;;;;;;;5066630;28;20045;-39
2023/10/02 00:58:58;;;;;;;51.50;15.52;;;;;;;;;;5061036;28;20029;-41
2023/10/02 01:01:32;;;;;;;50.63;14.23;;;;;;;;;;5054288;28;20573;-38
2023/10/02 01:09:30;;;;;;;51.45;13.13;;;;;;;;;;5064184;28;20036;-43
2023/10/02 01:11:58;;;;;;;46.97;12.13;;;;;;;;;;5065773;28;20127;-42
2023/10/02 01:14:50;;;;;;;52.53;12.93;;;;;;;;;;5052679;28;20135;-41
2023/10/02 01:17:17;;;;;;;;;;;;;;;;;;5069675;28;20552;-41
2023/10/02 01:20:08;;;;;;;60.42;12.38;;;;;;;;;;5065518;28;19938;-42
2023/10/02 01:22:42;;;;;;;44.40;10.77;;;;;;;;;;5066524;28;20055;-45
2023/10/02 01:25:16;;;;;;;51.30;10.82;;;;;;;;;;5058697;28;20044;-45
2023/10/02 01:27:47;;;;;;;48.72;10.20;;;;;;;;;;5067734;28;20032;-40
2023/10/02 01:30:15;;;;;;;47.55;9.50;;;;;;;;;;5054430;28;20017;-45
2023/10/02 01:33:12;;;;;;;40.25;8.98;;;;;;;;;;5067803;28;20086;-43
2023/10/02 01:35:39;;;;;;;39.70;8.52;;;;;;;;;;5056844;28;20445;-43
2023/10/02 01:38:15;;;;;;;32.92;7.13;;;;;;;;;;5059802;28;20049;-44
2023/10/02 01:40:48;;;;;;;41.42;7.03;;;;;;;;;;5058604;28;20032;-42
2023/10/02 01:43:16;;;;;;;30.65;7.55;;;;;;;;;;5061892;28;20047;-42
2023/10/02 01:45:48;;;;;;;44.63;6.72;;;;;;;;;;5055993;28;20051;-42
2023/10/02 01:48:40;;;;;;;31.77;6.40;;;;;;;;;;5070453;28;20028;-41
2023/10/02 01:51:21;;;;;;;41.15;7.00;;;;;;;;;;5052721;28;20040;-43
2023/10/02 01:53:51;;;;;;;36.58;7.43;;;;;;;;;;5064519;28;20032;-44
2023/10/02 01:56:19;;;;;;;28.75;5.90;;;;;;;;;;5056274;28;20048;-43
2023/10/02 01:58:50;;;;;;;37.88;6.75;;;;;;;;;;5057953;28;20074;-45
2023/10/02 02:01:20;;;;;;;32.25;6.32;;;;;;;;;;5039140;28;20052;-45
2023/10/02 02:03:51;;;;;;;35.53;7.45;;;;;;;;;;5062376;28;20040;-37
2023/10/02 02:06:22;;;;;;;31.20;5.93;;;;;;;;;;5059369;28;20059;-43
2023/10/02 02:08:53;;;;;;;32.70;5.27;;;;;;;;;;5060210;28;20070;-38
2023/10/02 02:11:24;;;;;;;29.50;5.18;;;;;;;;;;5060185;28;20035;-40
2023/10/02 02:13:55;;;;;;;31.45;5.70;;;;;;;;;;5061287;28;20048;-38
2023/10/02 02:16:25;;;;;;;31.00;5.10;;;;;;;;;;5058584;28;20048;-40
2023/10/02 02:18:56;;;;;;;24.98;5.90;;;;;;;;;;5050949;28;20036;-40
2023/10/02 02:21:24;;;;;;;27.63;5.28;;;;;;;;;;5053325;28;20083;-42
2023/10/02 02:24:03;;;;;;;25.90;4.68;;;;;;;;;;5050659;28;20032;-37
2023/10/02 02:26:31;;;;;;;30.95;5.10;;;;;;;;;;5053333;28;20025;-39
2023/10/02 02:28:58;;;;;;;29.08;4.07;;;;;;;;;;5054905;28;20028;-38
2023/10/02 02:31:29;;;;;;;39.08;4.45;;;;;;;;;;5054758;28;20029;-36
2023/10/02 02:34:01;;;;;;;21.90;3.63;;;;;;;;;;5054636;28;20437;-36
2023/10/02 02:36:29;;;;;;;25.25;4.03;;;;;;;;;;5054536;28;20036;-40
2023/10/02 02:42:09;;;;;;;34.58;4.20;;;;;;;;;;5031482;28;20550;-40
2023/10/02 02:44:40;;;;;;;17.45;3.50;;;;;;;;;;5054366;28;20040;-40
2023/10/02 02:47:09;;;;;;;27.92;3.95;;;;;;;;;;5054409;28;20033;-43
2023/10/02 02:49:52;;;;;;;15.80;3.55;;;;;;;;;;5054479;28;20044;-41
2023/10/02 02:52:20;;;;;;;21.95;3.58;;;;;;;;;;5054393;28;20087;-43
2023/10/02 02:54:48;;;;;;;18.63;3.60;;;;;;;;;;5054238;28;20087;-43
2023/10/02 02:57:18;;;;;;;19.15;3.13;;;;;;;;;;5054249;28;20596;-42
2023/10/02 02:59:46;;;;;;;16.02;2.95;;;;;;;;;;5053994;28;20045;-43
2023/10/02 03:02:21;;;;;;;19.33;3.67;;;;;;;;;;5054155;28;20368;-43
2023/10/02 03:04:53;;;;;;;18.98;3.00;;;;;;;;;;5054155;28;20179;-43
2023/10/02 03:07:36;;;;;;;17.80;2.97;;;;;;;;;;5054103;28;20033;-43
2023/10/02 03:10:09;;;;;;;15.60;2.50;;;;;;;;;;5053922;28;20029;-42
2023/10/02 03:12:42;;;;;;;26.00;3.25;;;;;;;;;;5054033;28;20037;-44
2023/10/02 03:15:12;;;;;;;16.58;2.53;;;;;;;;;;5053837;28;20052;-40
2023/10/02 03:17:41;;;;;;;14.23;3.42;;;;;;;;;;5053864;28;20387;-38
2023/10/02 03:20:24;;;;;;;15.13;2.78;;;;;;;;;;5053795;28;20037;-38
2023/10/02 03:22:56;;;;;;;18.17;2.75;;;;;;;;;;5053689;28;20029;-39
2023/10/02 03:25:44;;;;;;;19.35;2.40;;;;;;;;;;5053515;28;20072;-39
2023/10/02 03:28:32;;;;;;;18.77;2.80;;;;;;;;;;5053746;28;20040;-42
2023/10/02 03:30:58;;;;;;;21.13;2.83;;;;;;;;;;5053080;28;20045;-38
2023/10/02 03:33:31;;;;;;;27.92;3.15;;;;;;;;;;5053667;28;20029;-38
2023/10/02 03:36:14;;;;;;;;;;;;;;;;;;5053249;28;20048;-38
2023/10/02 03:38:44;;;;;;;21.42;3.20;;;;;;;;;;5053271;28;19921;-37
2023/10/02 03:41:16;;;;;;;23.25;3.10;;;;;;;;;;5053513;28;20028;-43
2023/10/02 03:43:49;;;;;;;;;;;;;;;;;;5053805;28;20425;-43
2023/10/02 03:46:35;;;;;;;29.48;3.60;;;;;;;;;;5062208;28;19963;-39
2023/10/02 03:49:06;;;;;;;29.48;3.13;;;;;;;;;;5073246;28;20040;-40
2023/10/02 03:51:36;;;;;;;22.77;3.08;;;;;;;;;;5073541;28;20090;-42
2023/10/02 03:54:22;;;;;;;27.48;3.40;;;;;;;;;;5073326;28;20425;-39
2023/10/02 03:56:50;;;;;;;23.25;2.88;;;;;;;;;;5073002;28;20049;-39
2023/10/02 03:59:22;;;;;;;30.33;3.10;;;;;;;;;;5073036;28;20028;-40
2023/10/02 04:01:52;;;;;;;24.05;3.22;;;;;;;;;;5073046;28;20028;-37
2023/10/02 04:04:21;;;;;;;23.23;2.85;;;;;;;;;;5073072;28;20028;-38
2023/10/02 04:06:53;;;;;;;28.92;2.83;;;;;;;;;;5073126;28;20037;-40
2023/10/02 04:11:51;;;;;;;26.08;3.20;;;;;;;;;;5073204;28;20036;-39
2023/10/02 04:14:18;;;;;;;26.02;3.67;;;;;;;;;;5072634;28;20657;-40
2023/10/02 04:16:48;;;;;;;19.85;3.15;;;;;;;;;;5072576;28;20111;-39
2023/10/02 04:19:25;;;;;;;22.00;3.05;;;;;;;;;;5072647;28;20064;-39
2023/10/02 04:21:56;;;;;;;19.83;2.80;;;;;;;;;;5072717;28;20117;-41
2023/10/02 04:24:24;;;;;;;27.45;3.22;;;;;;;;;;5072529;28;20032;-37
2023/10/02 04:27:14;;;;;;;20.33;2.55;;;;;;;;;;5071133;28;20467;-41
2023/10/02 04:30:09;;;;;;;21.65;2.63;;;;;;;;;;5072600;28;20032;-40
2023/10/02 04:32:32;;;;;;;23.00;2.45;;;;;;;;;;5072411;28;20040;-41
2023/10/02 04:35:02;;;;;;;21.55;3.13;;;;;;;;;;5072313;28;20174;-39
2023/10/02 04:37:36;;;;;;;23.92;2.83;;;;;;;;;;5071938;28;20117;-39
2023/10/02 04:43:19;;;;;;;22.58;2.60;;;;;;;;;;5072341;28;20573;-37
2023/10/02 04:45:26;;;;;;;17.23;2.22;;;;;;;;;;5071818;28;20047;-41
2023/10/02 04:47:54;;;;;;;21.42;2.45;;;;;;;;;;5071528;28;20043;-40
2023/10/02 04:55:41;;;;;;;22.77;2.47;;;;;;;;;;5071915;28;20055;-41
2023/10/02 04:58:09;;;;;;;20.45;2.15;;;;;;;;;;5071930;28;20055;-40
2023/10/02 05:00:38;;;;;;;22.10;2.53;;;;;;;;;;5071989;28;20035;-41
2023/10/02 05:03:26;;;;;;;19.85;2.25;;;;;;;;;;5071992;28;20075;-40
2023/10/02 05:05:53;;;;;;;16.50;1.95;;;;;;;;;;5071807;28;20028;-40
2023/10/02 05:08:21;;;;;;;14.18;2.50;;;;;;;;;;5071960;28;20509;-40
2023/10/02 05:10:56;;;;;;;20.63;2.10;;;;;;;;;;5071704;28;20111;-39
2023/10/02 05:16:12;;;;;;;24.98;2.60;;;;;;;;;;5071621;28;20094;-39
2023/10/02 05:18:44;;;;;;;18.88;2.45;;;;;;;;;;5071646;28;20033;-40
2023/10/02 05:21:17;;;;;;;14.18;1.98;;;;;;;;;;5071696;28;20032;-39
2023/10/02 05:23:56;;;;;;;9.77;1.98;;;;;;;;;;5071656;28;20032;-41
2023/10/02 05:26:32;;;;;;;19.92;2.08;;;;;;;;;;5071467;28;20123;-37
2023/10/02 05:29:00;;;;;;;16.25;1.90;;;;;;;;;;5071606;28;20024;-40
2023/10/02 05:31:27;;;;;;;15.05;2.03;;;;;;;;;;5071733;28;20032;-40
2023/10/02 05:33:57;;;;;;;16.63;2.17;;;;;;;;;;5071941;28;20505;-39
2023/10/02 05:36:24;;;;;;;11.93;2.00;;;;;;;;;;5071272;28;20056;-38
2023/10/02 05:41:44;;;;;;;10.55;2.13;;;;;;;;;;5059997;28;20068;-41
2023/10/02 05:44:31;;;;;;;13.35;1.80;;;;;;;;;;5071799;28;20032;-41
2023/10/02 05:47:05;;;;;;;10.80;1.63;;;;;;;;;;5071315;28;20033;-40
2023/10/02 05:49:47;;;;;;;13.18;1.80;;;;;;;;;;5071399;28;20044;-36
2023/10/02 05:52:19;;;;;;;10.68;1.80;;;;;;;;;;5071367;28;20164;-39
2023/10/02 05:54:53;;;;;;;10.70;1.70;;;;;;;;;;5071402;28;20051;-41
2023/10/02 05:57:20;;;;;;;9.25;1.52;;;;;;;;;;5071205;28;20028;-40
2023/10/02 05:59:54;;;;;;;10.27;2.00;;;;;;;;;;5072629;28;20028;-38
2023/10/02 06:02:26;;;;;;;11.10;1.77;;;;;;;;;;5073857;28;20032;-39
2023/10/02 06:04:59;;;;;;;10.82;1.80;;;;;;;;;;5075400;28;20075;-37
2023/10/02 06:07:43;;;;;;;12.05;1.70;;;;;;;;;;5075264;28;20554;-40
2023/10/02 06:10:25;;;;;;;7.25;1.73;;;;;;;;;;5075175;28;20029;-39
2023/10/02 06:13:08;;;;;;;11.50;1.50;;;;;;;;;;5075173;28;20150;-40
2023/10/02 06:15:48;;;;;;;9.45;1.52;;;;;;;;;;5074880;28;20093;-40
2023/10/02 06:18:27;;;;;;;8.55;1.42;;;;;;;;;;5075353;28;20463;-40
2023/10/02 06:21:00;;;;;;;9.52;2.00;;;;;;;;;;5074960;28;20028;-38
2023/10/02 06:23:29;;;;;;;8.65;1.85;;;;;;;;;;5074944;28;20039;-40
2023/10/02 06:25:59;;;;;;;8.93;1.58;;;;;;;;;;5074742;28;20047;-39
2023/10/02 06:28:27;;;;;;;7.95;1.50;;;;;;;;;;5074865;28;20371;-36
2023/10/02 06:30:54;;;;;;;7.28;1.40;;;;;;;;;;5074748;28;20107;-45
2023/10/02 06:33:22;;;;;;;5.22;1.60;;;;;;;;;;5074779;28;20078;-44
2023/10/02 06:36:00;;;;;;;7.50;1.80;;;;;;;;;;5074572;28;20068;-44
2023/10/02 06:38:30;;;;;;;7.60;1.40;;;;;;;;;;5074527;28;20402;-44
2023/10/02 06:40:59;;;;;;;9.15;1.30;;;;;;;;;;5074696;28;20492;-44
2023/10/02 06:43:29;;;;;;;6.78;1.25;;;;;;;;;;5074864;28;20040;-44
2023/10/02 06:48:43;;;;;;;8.70;1.63;;;;;;;;;;5048768;23;20049;-42
2023/10/02 06:51:12;;;;;;;9.38;1.48;;;;;;;;;;5035154;28;20033;-42
2023/10/02 06:53:43;;;;;;;8.38;1.30;;;;;;;;;;5034424;28;20032;-42
2023/10/02 06:56:15;;;;;;;9.23;1.60;;;;;;;;;;5034431;28;20502;-42
2023/10/02 06:58:56;;;;;;;6.32;1.35;;;;;;;;;;5034383;28;20041;-42
2023/10/02 07:01:27;;;;;;;8.95;1.38;;;;;;;;;;5034363;28;20502;-42
2023/10/02 07:03:56;;;;;;;6.72;1.67;;;;;;;;;;5034363;28;20108;-42
2023/10/02 07:06:28;;;;;;;13.15;1.50;;;;;;;;;;5033815;28;20560;-41
2023/10/02 07:09:11;;;;;;;7.72;1.30;;;;;;;;;;5034427;28;20457;-42
2023/10/02 07:11:39;;;;;;;9.75;1.48;;;;;;;;;;5033350;28;20025;-42
2023/10/02 07:14:06;;;;;;;4.82;1.45;;;;;;;;;;5034091;28;20037;-42
2023/10/02 07:16:33;;;;;;;11.75;1.30;;;;;;;;;;5033672;28;20042;-41
2023/10/02 07:19:01;;;;;;;11.85;1.38;;;;;;;;;;5033958;28;20057;-40
2023/10/02 07:21:30;;;;;;;9.55;1.23;;;;;;;;;;5034216;28;20033;-41
2023/10/02 07:24:03;;;;;;;2.90;1.00;;;;;;;;;;5033842;28;20035;-41
2023/10/02 07:26:51;;;;;;;8.77;1.30;;;;;;;;;;5033739;28;20446;-40
2023/10/02 07:29:19;;;;;;;4.03;0.98;;;;;;;;;;5033833;28;20026;-40
2023/10/02 07:31:47;;;;;;;4.70;1.10;;;;;;;;;;5033739;28;20548;-42
2023/10/02 07:34:15;;;;;;;6.38;1.27;;;;;;;;;;5033656;28;20029;-42
2023/10/02 07:36:45;;;;;;;7.53;1.33;;;;;;;;;;5033498;28;20387;-42
2023/10/02 07:39:35;;;;;;;6.95;1.38;;;;;;;;;;5033696;28;20137;-42
2023/10/02 07:42:04;;;;;;;6.55;1.50;;;;;;;;;;5033564;28;20033;-42
2023/10/02 07:44:37;;;;;;;6.93;1.27;;;;;;;;;;5033539;28;20082;-42
2023/10/02 07:47:11;;;;;;;6.57;1.30;;;;;;;;;;5033256;28;20068;-42
2023/10/02 07:49:39;;;;;;;7.28;1.08;;;;;;;;;;5033397;28;20128;-42
2023/10/02 07:52:11;;;;;;;7.13;1.17;;;;;;;;;;5033449;28;20434;-42
2023/10/02 07:55:23;;;;;;;7.20;1.00;;;;;;;;;;5033108;28;20114;-42
2023/10/02 07:57:32;;;;;;;3.83;1.08;;;;;;;;;;5030012;28;20056;-42
2023/10/02 08:00:05;;;;;;;8.13;1.10;;;;;;;;;;5033478;28;20030;-42
2023/10/02 08:02:33;;;;;;;6.00;1.30;;;;;;;;;;5033084;28;20159;-42
2023/10/02 08:05:04;;;;;;;2.63;1.00;;;;;;;;;;5033133;28;20056;-42
2023/10/02 08:07:35;;;;;;;2.60;1.40;;;;;;;;;;5032988;28;20036;-42
2023/10/02 08:10:05;;;;;;;5.25;1.20;;;;;;;;;;5033095;28;20057;-42
2023/10/02 08:12:35;;;;;;;6.32;1.40;;;;;;;;;;5032900;28;20107;-42
2023/10/02 08:18:04;;;;;;;6.15;1.30;;;;;;;;;;5032529;28;20091;-42
2023/10/02 08:20:37;;;;;;;4.32;1.25;;;;;;;;;;5032912;28;20156;-42
2023/10/02 08:23:23;;;;;;;5.30;1.20;;;;;;;;;;5032701;28;20021;-42
2023/10/02 08:26:05;;;;;;;2.33;0.93;;;;;;;;;;5032781;28;20053;-42
2023/10/02 08:28:35;;;;;;;4.05;1.25;;;;;;;;;;5032694;28;20463;-42
2023/10/02 08:31:03;;;;;;;3.70;1.17;;;;;;;;;;5032708;28;20029;-42
2023/10/02 08:33:30;;;;;;;4.15;1.10;;;;;;;;;;5032583;28;20057;-42
2023/10/02 08:36:09;;;;;;;6.38;1.20;;;;;;;;;;5032514;28;20064;-42
2023/10/02 08:38:40;;;;;;;5.43;1.42;;;;;;;;;;5032461;28;20103;-42
2023/10/02 08:41:08;;;;;;;3.25;0.98;;;;;;;;;;5032517;28;20041;-42
2023/10/02 08:43:44;;;;;;;7.50;1.20;;;;;;;;;;5032435;28;20030;-42
2023/10/02 08:46:23;;;;;;;5.88;1.10;;;;;;;;;;5032330;28;20029;-41
2023/10/02 08:49:00;;;;;;;6.10;1.23;;;;;;;;;;5032355;28;20037;-42
2023/10/02 08:51:38;;;;;;;4.97;1.10;;;;;;;;;;5031917;28;20091;-42
2023/10/02 08:54:05;;;;;;;3.88;0.90;;;;;;;;;;5032200;28;20107;-42
2023/10/02 08:56:48;;;;;;;4.30;1.05;;;;;;;;;;5032041;28;20033;-42
2023/10/02 08:59:26;;;;;;;1.95;1.00;;;;;;;;;;5032320;28;20065;-42
2023/10/02 09:02:16;;;;;;;3.97;1.20;;;;;;;;;;5031809;28;20025;-42
2023/10/02 09:04:51;;;;;;;2.70;1.08;;;;;;;;;;5032352;28;20100;-42
2023/10/02 09:07:42;;;;;;;3.33;0.93;;;;;;;;;;5031886;28;20472;-42
2023/10/02 09:10:28;;;;;;;5.03;0.90;;;;;;;;;;5031940;28;20026;-42
2023/10/02 09:13:14;;;;;;;5.10;1.20;;;;;;;;;;5031759;28;20037;-42
2023/10/02 09:15:53;;;;;;;2.20;0.82;;;;;;;;;;5031842;28;20040;-42
2023/10/02 09:21:23;;;;;;;3.97;1.17;;;;;;;;;;5021376;28;20120;-42
2023/10/02 09:23:51;;;;;;;2.92;1.00;;;;;;;;;;5031841;28;20468;-42
2023/10/02 09:26:23;;;;;;;4.07;1.23;;;;;;;;;;5031376;28;20072;-42
2023/10/02 09:29:00;;;;;;;7.20;1.17;;;;;;;;;;5027506;28;20392;-42
2023/10/02 09:31:32;;;;;;;6.35;0.95;;;;;;;;;;5022132;28;20037;-42
2023/10/02 09:34:10;;;;;;;5.68;1.23;;;;;;;;;;5028160;28;20056;-41
2023/10/02 09:36:47;;;;;;;5.88;1.35;;;;;;;;;;5030603;28;20037;-41
2023/10/02 09:39:36;;;;;;;6.30;1.23;;;;;;;;;;5021035;28;20022;-41
2023/10/02 09:42:07;;;;;;;6.47;1.10;;;;;;;;;;5030156;28;20087;-42
2023/10/02 09:44:40;;;;;;;5.47;1.25;;;;;;;;;;5031394;28;20031;-41
2023/10/02 09:47:11;;;;;;;5.90;1.27;;;;;;;;;;5031258;28;20491;-42
2023/10/02 09:49:43;;;;;;;9.65;1.30;;;;;;;;;;5031265;28;20781;-43
2023/10/02 09:52:23;;;;;;;11.85;1.50;;;;;;;;;;5031595;28;20029;-42
2023/10/02 09:55:03;;;;;;;10.35;1.55;;;;;;;;;;5031149;28;20388;-41
2023/10/02 09:57:37;;;;;;;5.13;1.30;;;;;;;;;;5031329;28;20075;-41
2023/10/02 10:00:54;;;;;;;11.20;1.20;;;;;;;;;;5030985;28;20022;-41
2023/10/02 10:03:14;;;;;;;6.32;1.20;;;;;;;;;;5026942;28;20136;-41
2023/10/02 10:06:05;;;;;;;8.55;1.20;;;;;;;;;;5031369;28;20033;-41
2023/10/02 10:09:18;;;;;;;8.45;1.20;;;;;;;;;;5031059;28;20048;-41
2023/10/02 10:11:39;;;;;;;6.93;1.35;;;;;;;;;;5031056;28;20038;-41
2023/10/02 10:14:35;;;;;;;8.23;1.23;;;;;;;;;;5031252;28;20030;-41
2023/10/02 10:17:18;;;;;;;2.33;1.00;;;;;;;;;;5031393;28;20034;-41
2023/10/02 10:20:18;;;;;;;4.78;1.02;;;;;;;;;;5028508;28;20049;-42
2023/10/02 10:22:55;;;;;;;12.35;1.42;;;;;;;;;;5030406;28;20040;-41
2023/10/02 10:27:55;;;;;;;5.20;1.23;;;;;;;;;;5030980;28;20037;-41
2023/10/02 10:30:25;;;;;;;7.82;1.20;;;;;;;;;;5031063;28;20036;-41
2023/10/02 10:35:40;;;;;;;11.60;1.75;;;;;;;;;;5021607;28;20050;-42
2023/10/02 10:38:25;;;;;;;7.72;1.63;;;;;;;;;;5025277;28;20040;-43
2023/10/02 10:41:00;;;;;;;7.65;1.73;;;;;;;;;;5031168;28;20394;-42
2023/10/02 10:43:44;;;;;;;9.00;1.88;;;;;;;;;;5031036;28;20029;-42
2023/10/02 10:46:15;;;;;;;17.20;2.13;;;;;;;;;;5031378;28;20029;-42
2023/10/02 10:48:45;;;;;;;15.00;2.30;;;;;;;;;;5034477;28;20136;-42
2023/10/02 10:51:22;;;;;;;26.65;2.60;;;;;;;;;;5034540;28;20441;-42
2023/10/02 10:53:52;;;;;;;13.57;1.77;;;;;;;;;;5034508;28;20410;-42
2023/10/02 10:56:22;;;;;;;14.85;2.20;;;;;;;;;;5034446;28;20073;-42
2023/10/02 10:59:10;;;;;;;15.93;2.13;;;;;;;;;;5034414;28;20787;-42
2023/10/02 11:02:14;;;;;;;14.57;1.95;;;;;;;;;;5034352;28;20061;-42
2023/10/02 11:04:47;;;;;;;14.30;2.10;;;;;;;;;;5034223;28;20036;-42
2023/10/02 11:07:23;;;;;;;18.05;2.13;;;;;;;;;;5034079;28;20562;-42
2023/10/02 11:10:19;;;;;;;16.27;2.10;;;;;;;;;;5034150;28;20033;-42
2023/10/02 11:13:08;;;;;;;10.75;1.60;;;;;;;;;;5033579;28;20104;-43
2023/10/02 11:15:54;;;;;;;9.65;2.03;;;;;;;;;;5034037;28;20038;-42
2023/10/02 11:18:26;;;;;;;7.93;1.88;;;;;;;;;;5034199;28;20044;-42
2023/10/02 11:20:59;;;;;;;17.15;2.13;;;;;;;;;;5034003;28;20032;-43
2023/10/02 11:23:40;;;;;;;9.63;1.90;;;;;;;;;;5033941;28;20503;-42
2023/10/02 11:26:15;;;;;;;7.10;1.90;;;;;;;;;;5033795;28;20128;-44
2023/10/02 11:28:44;;;;;;;11.15;2.00;;;;;;;;;;5033752;28;20104;-42
2023/10/02 11:31:30;;;;;;;11.57;1.60;;;;;;;;;;5033742;28;20379;-42
2023/10/02 11:34:04;;;;;;;10.50;1.85;;;;;;;;;;5033738;28;20479;-42
2023/10/02 11:36:37;;;;;;;11.15;1.88;;;;;;;;;;5033634;28;20064;-42
2023/10/02 11:39:09;;;;;;;;;;;;;;;;;;5034315;28;20530;-42
2023/10/02 11:41:37;;;;;;;11.55;1.77;;;;;;;;;;5033589;28;20298;-42
2023/10/02 11:44:11;;;;;;;15.82;1.85;;;;;;;;;;5033524;28;20110;-41
2023/10/02 11:46:38;;;;;;;10.65;1.80;;;;;;;;;;5032648;28;20068;-41
2023/10/02 11:49:05;;;;;;;15.90;1.80;;;;;;;;;;5033535;28;20056;-41
2023/10/02 11:51:33;;;;;;;11.60;2.00;;;;;;;;;;5020195;28;20058;-39
2023/10/02 11:54:05;;;;;;;15.88;2.20;;;;;;;;;;5022429;28;20824;-41
2023/10/02 11:56:31;;;;;;;;;;;;;;;;;;5014765;28;20396;-40
2023/10/02 11:58:58;;;;;;;20.25;2.10;;;;;;;;;;5010936;28;20384;-42
2023/10/02 12:01:26;;;;;;;23.67;2.30;;;;;;;;;;5013316;28;20088;-40
2023/10/02 12:04:00;;;;;;;11.13;1.92;;;;;;;;;;5012548;28;20030;-41
2023/10/02 12:06:28;;;;;;;16.63;2.35;;;;;;;;;;5013071;28;20049;-42
2023/10/02 12:08:57;;;;;;;16.88;2.70;;;;;;;;;;5011471;28;20713;-41
2023/10/02 12:11:25;;;;;;;19.02;2.80;;;;;;;;;;5017455;28;20548;-37
2023/10/02 12:13:52;;;;;;;21.45;2.35;;;;;;;;;;5021654;28;20062;-40
2023/10/02 12:16:21;;;;;;;21.63;2.53;;;;;;;;;;5021272;28;20033;-41
2023/10/02 12:18:50;;;;;;;14.70;2.65;;;;;;;;;;5021620;28;20037;-41
2023/10/02 12:21:19;;;;;;;18.65;2.20;;;;;;;;;;5027633;28;20033;-40
2023/10/02 12:23:47;;;;;;;22.50;2.83;;;;;;;;;;5031903;28;20038;-38
2023/10/02 12:26:17;;;;;;;19.77;2.90;;;;;;;;;;5032170;28;20045;-40
2023/10/02 12:28:44;;;;;;;20.77;2.88;;;;;;;;;;5032592;28;20033;-38
2023/10/02 12:31:15;;;;;;;25.42;2.35;;;;;;;;;;5030988;28;20021;-38
2023/10/02 12:33:46;;;;;;;23.92;3.00;;;;;;;;;;5032206;28;20033;-38
2023/10/02 12:36:15;;;;;;;20.20;2.10;;;;;;;;;;5031662;28;20038;-36
2023/10/02 12:38:42;;;;;;;23.13;2.88;;;;;;;;;;5031490;28;20509;-38
2023/10/02 12:41:29;;;;;;;22.42;3.08;;;;;;;;;;5030843;28;20029;-38
2023/10/02 12:43:58;;;;;;;23.40;2.67;;;;;;;;;;5032030;28;20044;-38
2023/10/02 12:46:25;;;;;;;21.52;2.70;;;;;;;;;;5030590;28;20116;-38
2023/10/02 12:48:52;;;;;;;24.10;2.97;;;;;;;;;;5031640;28;20033;-39
2023/10/02 12:51:19;;;;;;;22.67;2.75;;;;;;;;;;5030210;28;20017;-40
2023/10/02 12:53:46;;;;;;;22.30;3.30;;;;;;;;;;5032001;28;20033;-38
2023/10/02 12:56:24;;;;;;;30.67;3.10;;;;;;;;;;5031812;28;20040;-39
2023/10/02 12:58:51;;;;;;;25.92;3.03;;;;;;;;;;5031824;28;20029;-39
2023/10/02 13:01:27;;;;;;;48.33;3.75;;;;;;;;;;5030544;28;20864;-37
2023/10/02 13:03:59;;;;;;;35.22;3.45;;;;;;;;;;5031850;28;20037;-38
2023/10/02 13:06:26;;;;;;;41.13;4.03;;;;;;;;;;5030260;28;20124;-39
2023/10/02 13:11:39;;;;;;;37.40;3.75;;;;;;;;;;5028943;28;20442;-40
2023/10/02 13:14:12;;;;;;;25.33;3.25;;;;;;;;;;5029590;28;20123;-39
2023/10/02 13:16:43;;;;;;;39.35;4.55;;;;;;;;;;5029921;28;20033;-39
2023/10/02 13:19:11;;;;;;;43.33;4.57;;;;;;;;;;5030186;28;20034;-38
2023/10/02 13:21:38;;;;;;;46.97;4.95;;;;;;;;;;5030224;28;20129;-38
2023/10/02 13:24:06;;;;;;;68.45;6.28;;;;;;;;;;5028818;28;20025;-38
2023/10/02 13:26:36;;;;;;;90.32;7.82;;;;;;;;;;5029798;28;20454;-40
2023/10/02 13:29:03;;;;;;;114.43;9.25;;;;;;;;;;5030301;28;20021;-36
2023/10/02 13:31:30;;;;;;;102.95;9.35;;;;;;;;;;5029959;28;20025;-38
2023/10/02 13:33:57;;;;;;;131.13;9.77;;;;;;;;;;5028219;28;20482;-38
2023/10/02 13:36:25;;;;;;;143.98;11.50;;;;;;;;;;5029589;28;20480;-38
2023/10/02 13:38:56;;;;;;;144.93;12.77;;;;;;;;;;5028603;28;20481;-38
2023/10/02 13:41:24;;;;;;;159.38;13.02;;;;;;;;;;5029998;28;20025;-39
2023/10/02 13:43:59;;;;;;;167.55;13.20;;;;;;;;;;5027938;28;20041;-38
2023/10/02 13:46:26;;;;;;;194.60;14.15;;;;;;;;;;5029212;28;20038;-41
2023/10/02 13:48:53;;;;;;;176.07;13.80;;;;;;;;;;5029075;28;20042;-43
2023/10/02 13:51:21;;;;;;;158.32;12.88;;;;;;;;;;5028430;28;20120;-39
2023/10/02 13:53:53;;;;;;;170.70;14.40;;;;;;;;;;5027308;28;20026;-43
2023/10/02 13:56:26;;;;;;;165.07;14.25;;;;;;;;;;5026337;28;20077;-38
2023/10/02 13:58:53;;;;;;;182.32;15.18;;;;;;;;;;5027534;28;20025;-38
2023/10/02 14:01:21;;;;;;;204.10;15.23;;;;;;;;;;5027974;28;20507;-35
2023/10/02 14:03:51;;;;;;;159.32;15.00;;;;;;;;;;5028108;28;20021;-40
2023/10/02 14:06:20;;;;;;;201.52;17.50;;;;;;;;;;5025994;28;20031;-38
2023/10/02 14:08:49;;;;;;;155.80;15.13;;;;;;;;;;5028239;28;20032;-38
2023/10/02 14:11:17;;;;;;;168.07;15.82;;;;;;;;;;5029050;28;20613;-41
2023/10/02 14:13:53;;;;;;;131.88;13.35;;;;;;;;;;5029537;28;20026;-39
2023/10/02 14:16:21;;;;;;;166.50;14.57;;;;;;;;;;5028233;28;20034;-40
2023/10/02 14:18:56;;;;;;;154.73;14.05;;;;;;;;;;5029693;28;20032;-39
2023/10/02 14:21:24;;;;;;;143.55;13.48;;;;;;;;;;5031678;28;20041;-38
2023/10/02 14:23:54;;;;;;;121.90;11.38;;;;;;;;;;5033025;28;20029;-40
2023/10/02 14:26:22;;;;;;;138.68;12.30;;;;;;;;;;5032150;28;20042;-36
2023/10/02 14:28:50;;;;;;;134.88;12.82;;;;;;;;;;5033148;28;20067;-38
2023/10/02 14:31:23;;;;;;;161.55;13.60;;;;;;;;;;5033180;28;20471;-37
2023/10/02 14:33:51;;;;;;;191.07;15.43;;;;;;;;;;5033448;28;20029;-40
2023/10/02 14:36:18;;;;;;;175.40;14.27;;;;;;;;;;5033173;28;20045;-39
2023/10/02 14:38:46;;;;;;;190.50;15.13;;;;;;;;;;5031492;28;20036;-38
2023/10/02 14:41:13;;;;;;;195.05;16.02;;;;;;;;;;5033088;28;20067;-37
2023/10/02 14:43:40;;;;;;;215.25;16.90;;;;;;;;;;5032884;28;20041;-36
2023/10/02 14:46:07;;;;;;;187.70;17.15;;;;;;;;;;5032373;28;20025;-36
2023/10/02 14:48:36;;;;;;;164.90;16.25;;;;;;;;;;5030587;28;20053;-38
2023/10/02 14:51:05;;;;;;;159.55;13.10;;;;;;;;;;5032410;28;20372;-40
2023/10/02 14:53:32;;;;;;;171.75;16.50;;;;;;;;;;5032289;28;20395;-38
2023/10/02 14:56:03;;;;;;;197.98;16.88;;;;;;;;;;5032736;28;20025;-38
2023/10/02 14:58:30;;;;;;;200.30;17.65;;;;;;;;;;5030029;28;20029;-38
2023/10/02 15:00:57;;;;;;;185.98;17.73;;;;;;;;;;5032374;28;20029;-39
2023/10/02 15:03:25;;;;;;;222.52;18.13;;;;;;;;;;5032212;28;20021;-38
2023/10/02 15:05:52;;;;;;;179.05;15.70;;;;;;;;;;5032588;28;20041;-38
2023/10/02 15:08:19;;;;;;;148.52;14.80;;;;;;;;;;5032427;28;20026;-43
2023/10/02 15:10:48;;;;;;;160.00;14.38;;;;;;;;;;5031409;28;20060;-42
2023/10/02 15:13:16;;;;;;;141.52;13.40;;;;;;;;;;5031419;28;20040;-39
2023/10/02 15:15:43;;;;;;;108.63;12.52;;;;;;;;;;5031129;28;20076;-38
2023/10/02 15:18:13;;;;;;;149.45;12.65;;;;;;;;;;5031888;28;20083;-43
2023/10/02 15:20:41;;;;;;;120.28;12.07;;;;;;;;;;5027215;28;20064;-41
2023/10/02 15:23:10;;;;;;;128.73;11.05;;;;;;;;;;5031760;28;20072;-41
2023/10/02 15:25:40;;;;;;;96.90;11.40;;;;;;;;;;5029963;28;20021;-43
2023/10/02 15:28:07;;;;;;;90.15;9.65;;;;;;;;;;5024172;28;20037;-41
2023/10/02 15:30:35;;;;;;;82.47;9.80;;;;;;;;;;5018341;28;20058;-43
2023/10/02 15:33:02;;;;;;;86.18;9.43;;;;;;;;;;5019895;28;20431;-42
2023/10/02 15:35:30;;;;;;;66.88;8.20;;;;;;;;;;5017191;28;20037;-45
2023/10/02 15:38:01;;;;;;;91.70;9.55;;;;;;;;;;5020784;28;20029;-43
2023/10/02 15:40:29;;;;;;;72.97;8.53;;;;;;;;;;5021340;28;20033;-41
2023/10/02 15:42:56;;;;;;;77.20;8.88;;;;;;;;;;5019895;28;20105;-43
2023/10/02 15:45:26;;;;;;;68.28;8.43;;;;;;;;;;5020623;28;20032;-41